Time,TemperatureF,DewpointF,PressureIn,WindDirection,WindDirectionDegrees,WindSpeedMPH,WindSpeedGustMPH,Humidity,HourlyPrecipIn,Conditions,Clouds,dailyrainin,SoftwareType,DateUTC
2013-10-27 00:02:00,-999.0,-99.9,30.12,NNW,327,0.0,2.0,-999,-99.99,,,-99.99,,2013-10-27 04:02:00,
2013-10-27 00:13:00,34.0,29.0,30.12,NNW,327,0.0,2.0,83,0.00,,,0.00,,2013-10-27 04:13:00,
2013-10-27 00:24:00,34.0,30.0,30.12,NNW,327,0.0,1.0,84,0.00,,,0.00,,2013-10-27 04:24:00,
2013-10-27 00:44:00,33.0,29.0,30.11,NNW,327,0.0,1.0,85,0.00,,,0.00,,2013-10-27 04:44:00,
2013-10-27 00:54:00,33.0,29.0,30.11,NNW,327,0.0,0.0,86,0.00,,,0.00,,2013-10-27 04:54:00,
2013-10-27 01:13:00,33.0,29.0,30.10,NNW,327,0.0,0.0,86,0.00,,,0.00,,2013-10-27 05:13:00,
2013-10-27 01:23:00,33.0,30.0,30.10,NNW,327,0.0,0.0,87,0.00,,,0.00,,2013-10-27 05:23:00,
2013-10-27 01:43:00,32.0,29.0,30.09,NNW,327,0.0,0.0,87,0.00,,,0.00,,2013-10-27 05:43:00,
2013-10-27 01:52:00,32.0,28.0,30.09,NNW,327,0.0,0.0,86,0.00,,,0.00,,2013-10-27 05:52:00,
2013-10-27 02:13:00,30.0,26.0,30.09,NNW,327,0.0,0.0,85,0.00,,,0.00,,2013-10-27 06:13:00,
2013-10-27 02:22:00,30.0,27.0,30.08,NNW,327,0.0,0.0,89,0.00,,,0.00,,2013-10-27 06:22:00,
2013-10-27 02:42:00,31.0,28.0,30.09,NNW,327,0.0,2.0,89,0.00,,,0.00,,2013-10-27 06:42:00,
2013-10-27 02:53:00,30.0,27.0,30.09,NNW,327,0.0,2.0,88,0.00,,,0.00,,2013-10-27 06:53:00,
2013-10-27 03:12:00,31.0,28.0,30.09,NNW,327,0.0,1.0,88,0.00,,,0.00,,2013-10-27 07:12:00,
2013-10-27 03:22:00,31.0,28.0,30.09,NNW,327,0.0,2.0,88,0.00,,,0.00,,2013-10-27 07:22:00,
2013-10-27 03:42:00,31.0,28.0,30.09,NNW,327,0.0,1.0,87,0.00,,,0.00,,2013-10-27 07:42:00,
2013-10-27 03:52:00,31.0,28.0,30.09,NNW,327,0.0,0.0,88,0.00,,,0.00,,2013-10-27 07:52:00,
2013-10-27 04:11:00,31.0,28.0,30.09,NNW,327,0.0,0.0,88,0.00,,,0.00,,2013-10-27 08:11:00,
2013-10-27 04:22:00,32.0,29.0,30.09,NNW,327,0.0,0.0,88,0.00,,,0.00,,2013-10-27 08:22:00,
2013-10-27 04:42:00,32.0,28.0,30.08,NNW,327,0.0,1.0,86,0.00,,,0.00,,2013-10-27 08:42:00,
2013-10-27 04:52:00,32.0,28.0,30.08,NNW,327,0.0,2.0,86,0.00,,,0.00,,2013-10-27 08:52:00,
2013-10-27 05:12:00,32.0,28.0,30.08,NNW,327,0.0,1.0,86,0.00,,,0.00,,2013-10-27 09:12:00,
2013-10-27 05:21:00,31.0,27.0,30.08,NNW,327,0.0,1.0,86,0.00,,,0.00,,2013-10-27 09:21:00,
2013-10-27 05:43:00,31.0,27.0,30.08,NNW,327,0.0,1.0,86,0.00,,,0.00,,2013-10-27 09:43:00,
2013-10-27 05:53:00,30.0,26.0,30.08,NNW,327,0.0,0.0,86,0.00,,,0.00,,2013-10-27 09:53:00,
2013-10-27 06:12:00,30.0,27.0,30.08,NNW,327,0.0,1.0,87,0.00,,,0.00,,2013-10-27 10:12:00,
2013-10-27 06:23:00,30.0,27.0,30.08,NNW,327,0.0,1.0,88,0.00,,,0.00,,2013-10-27 10:23:00,
2013-10-27 06:42:00,30.0,27.0,30.09,NNW,327,0.0,1.0,87,0.00,,,0.00,,2013-10-27 10:42:00,
2013-10-27 06:53:00,29.0,26.0,30.09,NNW,327,0.0,0.0,88,0.00,,,0.00,,2013-10-27 10:53:00,
2013-10-27 07:12:00,29.0,26.0,30.09,NNW,327,0.0,0.0,89,0.00,,,0.00,,2013-10-27 11:12:00,
2013-10-27 07:22:00,30.0,27.0,30.09,NNW,327,0.0,0.0,89,0.00,,,0.00,,2013-10-27 11:22:00,
2013-10-27 07:42:00,29.0,26.0,30.10,NNW,327,0.0,0.0,89,0.00,,,0.00,,2013-10-27 11:42:00,
2013-10-27 07:52:00,30.0,27.0,30.10,NNW,327,0.0,1.0,88,0.00,,,0.00,,2013-10-27 11:52:00,
2013-10-27 08:12:00,30.0,27.0,30.10,NNW,327,0.0,1.0,89,0.00,,,0.00,,2013-10-27 12:12:00,
2013-10-27 08:22:00,30.0,27.0,30.10,NNW,327,0.0,1.0,88,0.00,,,0.00,,2013-10-27 12:22:00,
2013-10-27 08:42:00,29.0,26.0,30.10,NNW,327,0.0,0.0,88,0.00,,,0.00,,2013-10-27 12:42:00,
2013-10-27 08:52:00,29.0,26.0,30.11,NNW,327,0.0,0.0,88,0.00,,,0.00,,2013-10-27 12:52:00,
2013-10-27 09:12:00,30.0,27.0,30.11,NNW,327,0.0,0.0,89,0.00,,,0.00,,2013-10-27 13:12:00,
2013-10-27 09:21:00,30.0,27.0,30.11,NNW,327,0.0,0.0,89,0.00,,,0.00,,2013-10-27 13:21:00,
2013-10-27 09:42:00,31.0,28.0,30.11,NNW,327,0.0,1.0,89,0.00,,,0.00,,2013-10-27 13:42:00,
2013-10-27 09:52:00,31.0,28.0,30.12,NNW,327,0.0,0.0,88,0.00,,,0.00,,2013-10-27 13:52:00,
2013-10-27 10:11:00,33.0,30.0,30.13,NNW,327,0.0,1.0,89,0.00,,,0.00,,2013-10-27 14:11:00,
2013-10-27 10:22:00,35.0,32.0,30.13,NNW,327,0.0,1.0,89,0.00,,,0.00,,2013-10-27 14:22:00,
2013-10-27 11:44:00,45.0,36.0,30.13,West,275,3.0,7.0,70,0.00,,,0.00,,2013-10-27 15:44:00,
2013-10-27 11:54:00,47.0,33.0,30.12,WNW,292,5.0,9.0,57,0.00,,,0.00,,2013-10-27 15:54:00,
2013-10-27 12:13:00,48.0,34.0,30.12,West,262,4.0,10.0,57,0.00,,,0.00,,2013-10-27 16:13:00,
2013-10-27 12:24:00,49.0,33.0,30.12,WSW,257,4.0,11.0,54,0.00,,,0.00,,2013-10-27 16:24:00,
2013-10-27 12:43:00,49.0,33.0,30.12,SW,217,3.0,12.0,54,0.00,,,0.00,,2013-10-27 16:43:00,
2013-10-27 12:53:00,50.0,33.0,30.12,West,259,5.0,11.0,52,0.00,,,0.00,,2013-10-27 16:53:00,
2013-10-27 13:13:00,51.0,33.0,30.11,West,267,3.0,10.0,50,0.00,,,0.00,,2013-10-27 17:13:00,
2013-10-27 13:22:00,51.0,33.0,30.11,West,263,8.0,12.0,49,0.00,,,0.00,,2013-10-27 17:22:00,
2013-10-27 13:43:00,51.0,33.0,30.11,West,275,4.0,10.0,50,0.00,,,0.00,,2013-10-27 17:43:00,
2013-10-27 13:53:00,52.0,33.0,30.10,SW,236,5.0,13.0,48,0.00,,,0.00,,2013-10-27 17:53:00,
2013-10-27 14:12:00,52.0,31.0,30.09,SW,234,5.0,12.0,44,0.00,,,0.00,,2013-10-27 18:12:00,
2013-10-27 14:22:00,53.0,31.0,30.08,WSW,254,7.0,12.0,43,0.00,,,0.00,,2013-10-27 18:22:00,
2013-10-27 14:43:00,53.0,31.0,30.08,SW,223,4.0,9.0,42,0.00,,,0.00,,2013-10-27 18:43:00,
2013-10-27 14:52:00,53.0,32.0,30.06,West,275,4.0,11.0,44,0.00,,,0.00,,2013-10-27 18:52:00,
2013-10-27 15:12:00,54.0,31.0,30.06,WNW,290,6.0,11.0,42,0.00,,,0.00,,2013-10-27 19:12:00,
2013-10-27 15:22:00,54.0,31.0,30.06,SW,231,3.0,8.0,42,0.00,,,0.00,,2013-10-27 19:22:00,
2013-10-27 15:42:00,54.0,31.0,30.06,West,261,4.0,11.0,41,0.00,,,0.00,,2013-10-27 19:42:00,
2013-10-27 15:52:00,55.0,32.0,30.06,WSW,240,5.0,12.0,41,0.00,,,0.00,,2013-10-27 19:52:00,
2013-10-27 16:12:00,55.0,30.0,30.06,West,280,2.0,13.0,38,0.00,,,0.00,,2013-10-27 20:12:00,
2013-10-27 16:22:00,55.0,30.0,30.05,West,280,5.0,13.0,38,0.00,,,0.00,,2013-10-27 20:22:00,
2013-10-27 16:43:00,55.0,29.0,30.05,West,281,7.0,11.0,37,0.00,,,0.00,,2013-10-27 20:43:00,
2013-10-27 16:52:00,55.0,30.0,30.05,WSW,242,7.0,12.0,38,0.00,,,0.00,,2013-10-27 20:52:00,
2013-10-27 17:11:00,55.0,30.0,30.05,WSW,250,5.0,12.0,38,0.00,,,0.00,,2013-10-27 21:11:00,
2013-10-27 17:21:00,55.0,29.0,30.05,West,278,3.0,9.0,37,0.00,,,0.00,,2013-10-27 21:21:00,
2013-10-27 17:43:00,56.0,31.0,30.04,West,266,3.0,9.0,38,0.00,,,0.00,,2013-10-27 21:43:00,
2013-10-27 17:54:00,55.0,31.0,30.04,SSW,196,2.0,7.0,40,0.00,,,0.00,,2013-10-27 21:54:00,
2013-10-27 18:13:00,55.0,30.0,30.04,WSW,242,4.0,10.0,38,0.00,,,0.00,,2013-10-27 22:13:00,
2013-10-27 18:24:00,55.0,31.0,30.04,WSW,254,3.0,7.0,39,0.00,,,0.00,,2013-10-27 22:24:00,
2013-10-27 18:43:00,54.0,31.0,30.04,SW,231,0.0,6.0,41,0.00,,,0.00,,2013-10-27 22:43:00,
2013-10-27 18:54:00,53.0,29.0,30.04,SW,227,2.0,5.0,40,0.00,,,0.00,,2013-10-27 22:54:00,
2013-10-27 19:12:00,52.0,30.0,30.05,SW,217,0.0,3.0,42,0.00,,,0.00,,2013-10-27 23:12:00,
2013-10-27 19:22:00,50.0,30.0,30.05,SW,217,0.0,1.0,46,0.00,,,0.00,,2013-10-27 23:22:00,
2013-10-27 19:42:00,49.0,31.0,30.05,SW,217,0.0,1.0,49,0.00,,,0.00,,2013-10-27 23:42:00,
2013-10-27 19:52:00,46.0,29.0,30.05,SW,217,0.0,2.0,52,0.00,,,0.00,,2013-10-27 23:52:00,
2013-10-27 20:11:00,44.0,30.0,30.05,SW,217,0.0,0.0,57,0.00,,,0.00,,2013-10-28 00:11:00,
2013-10-27 20:22:00,43.0,30.0,30.05,SW,217,0.0,0.0,60,0.00,,,0.00,,2013-10-28 00:22:00,
2013-10-27 20:43:00,43.0,30.0,30.05,SW,217,0.0,0.0,61,0.00,,,0.00,,2013-10-28 00:43:00,
2013-10-27 20:52:00,43.0,30.0,30.05,SW,217,0.0,0.0,61,0.00,,,0.00,,2013-10-28 00:52:00,
2013-10-27 21:12:00,42.0,30.0,30.05,SW,217,0.0,0.0,62,0.00,,,0.00,,2013-10-28 01:12:00,
2013-10-27 21:21:00,41.0,30.0,30.05,SW,217,0.0,0.0,64,0.00,,,0.00,,2013-10-28 01:21:00,
2013-10-27 21:42:00,41.0,30.0,30.06,SW,217,0.0,1.0,65,0.00,,,0.00,,2013-10-28 01:42:00,
2013-10-27 21:52:00,41.0,29.0,30.06,SW,217,0.0,0.0,63,0.00,,,0.00,,2013-10-28 01:52:00,
2013-10-27 22:12:00,40.0,29.0,30.06,SW,217,0.0,1.0,65,0.00,,,0.00,,2013-10-28 02:12:00,
2013-10-27 22:22:00,40.0,30.0,30.07,SW,236,0.0,0.0,66,0.00,,,0.00,,2013-10-28 02:22:00,
2013-10-27 22:42:00,39.0,29.0,30.07,SW,236,0.0,0.0,68,0.00,,,0.00,,2013-10-28 02:42:00,
2013-10-27 22:53:00,39.0,29.0,30.08,SW,229,0.0,1.0,68,0.00,,,0.00,,2013-10-28 02:53:00,
2013-10-27 23:11:00,39.0,29.0,30.08,SW,229,0.0,0.0,68,0.00,,,0.00,,2013-10-28 03:11:00,
2013-10-27 23:22:00,39.0,30.0,30.08,SW,229,0.0,0.0,69,0.00,,,0.00,,2013-10-28 03:22:00,
2013-10-27 23:44:00,38.0,29.0,30.09,SW,229,0.0,0.0,71,0.00,,,0.00,,2013-10-28 03:44:00,
2013-10-27 23:54:00,38.0,30.0,30.09,SW,229,0.0,1.0,72,0.00,,,0.00,,2013-10-28 03:54:00,